Terminal Aerodrome Forecast
Issued by NWS

Home | Current Version | Previous Version | Text Only | Print | Product List | Glossary On
Versions: 1 2 3 4 5 6 7 8 9 10 11 12 13 14 15 16
061
FTUS41 KBGM 222332
TAFITH
TAF
KITH 222332Z 2300/2324 17008KT P6SM SCT035 OVC060
     FM230600 16005KT P6SM SCT040
      TEMPO 2309/2313 1SM BR OVC008
     FM231400 18012G22KT P6SM BKN040
     FM232300 26008KT P6SM SCT025 OVC040=

USA.gov is the U.S. government's official web portal to all federal, state and local government web resources and services.